createdAt,value
2022-08-01T00:02:29.686Z,91.23
2022-08-01T00:07:34.048Z,92.04
2022-08-01T00:12:37.134Z,90.40
2022-08-01T00:17:40.354Z,92.32
2022-08-01T00:22:44.485Z,90.55
2022-08-01T00:27:47.520Z,93.23
2022-08-01T00:32:50.316Z,93.37
2022-08-01T00:37:54.536Z,91.16
2022-08-01T00:42:57.443Z,92.74
2022-08-01T00:48:00.266Z,92.99
2022-08-01T00:53:04.631Z,94.11
2022-08-01T00:58:07.659Z,93.46
2022-08-01T01:03:15.944Z,94.46
2022-08-01T01:08:26.265Z,92.86
2022-08-01T01:13:50.453Z,92.64
2022-08-01T01:18:56.781Z,91.29
2022-08-01T01:24:14.656Z,91.90
2022-08-01T01:29:25.982Z,92.68
2022-08-01T01:34:31.259Z,90.43
2022-08-01T01:39:35.898Z,91.86
2022-08-01T01:44:40.653Z,90.19
2022-08-01T01:49:45.967Z,90.39
2022-08-01T01:54:51.700Z,90.73
2022-08-01T01:59:57.951Z,90.93
2022-08-01T02:05:02.948Z,89.39
2022-08-01T02:10:07.872Z,90.05
2022-08-01T02:15:15.065Z,88.47
2022-08-01T02:20:18.329Z,90.82
2022-08-01T02:25:27.488Z,90.30
2022-08-01T02:30:35.074Z,90.71
2022-08-01T02:36:29.748Z,92.40
2022-08-01T02:41:09.767Z,93.55
2022-08-01T02:46:20.399Z,94.08
2022-08-01T02:51:26.977Z,94.58
2022-08-01T02:56:36.593Z,95.41
2022-08-01T03:01:42.020Z,94.35
2022-08-01T03:06:45.400Z,95.86
2022-08-01T03:11:50.027Z,96.38
2022-08-01T03:16:56.076Z,97.11
2022-08-01T03:22:00.395Z,97.87
2022-08-01T03:27:04.723Z,99.34
2022-08-01T03:32:10.492Z,100.00
2022-08-01T03:37:16.972Z,100.00
2022-08-01T03:42:22.791Z,100.00
2022-08-01T03:47:34.369Z,100.00
2022-08-01T03:52:47.112Z,100.00
2022-08-01T03:57:51.029Z,100.00
2022-08-01T04:02:55.864Z,100.00
2022-08-01T04:08:00.404Z,100.00
2022-08-01T04:13:03.578Z,100.00
2022-08-01T04:18:08.223Z,100.00
2022-08-01T04:23:12.707Z,100.00
2022-08-01T04:28:17.559Z,100.00
2022-08-01T04:33:22.450Z,100.00
2022-08-01T04:38:28.982Z,100.00
2022-08-01T04:43:31.761Z,100.00
2022-08-01T04:48:38.590Z,100.00
2022-08-01T04:53:41.346Z,100.00
2022-08-01T04:58:45.762Z,100.00
2022-08-01T05:03:50.696Z,100.00
2022-08-01T05:08:53.434Z,100.00
2022-08-01T05:13:56.220Z,100.00
2022-08-01T05:19:00.350Z,100.00
2022-08-01T05:24:03.390Z,100.00
2022-08-01T05:29:06.662Z,100.00
2022-08-01T05:34:14.890Z,100.00
2022-08-01T05:39:18.259Z,100.00
2022-08-01T05:44:22.604Z,100.00
2022-08-01T05:49:26.843Z,100.00
2022-08-01T05:54:29.913Z,100.00
2022-08-01T05:59:32.755Z,100.00
2022-08-01T06:04:37.072Z,100.00
2022-08-01T06:09:39.904Z,100.00
2022-08-01T06:14:42.690Z,100.00
2022-08-01T06:19:46.891Z,100.00
2022-08-01T06:24:49.790Z,100.00
2022-08-01T06:29:54.436Z,99.91
2022-08-01T06:34:59.121Z,97.61
2022-08-01T06:40:03.040Z,98.57
2022-08-01T06:45:06.439Z,99.39
2022-08-01T06:50:12.150Z,98.48
2022-08-01T06:55:16.646Z,96.81
2022-08-01T07:00:23.275Z,93.85
2022-08-01T07:05:27.996Z,88.04
2022-08-01T07:10:30.995Z,85.01
2022-08-01T07:15:33.776Z,83.36
2022-08-01T07:20:51.175Z,81.00
2022-08-01T07:25:59.340Z,80.03
2022-08-01T07:31:03.673Z,77.95
2022-08-01T07:36:08.159Z,76.35
2022-08-01T07:41:11.903Z,73.37
2022-08-01T07:46:15.072Z,72.48
2022-08-01T07:51:19.350Z,73.11
2022-08-01T07:56:25.730Z,72.54
2022-08-01T08:01:28.739Z,72.92
2022-08-01T08:06:33.048Z,71.90
2022-08-01T08:11:35.818Z,72.18
2022-08-01T08:16:38.723Z,72.01
2022-08-01T08:21:44.402Z,71.33
2022-08-01T08:26:47.728Z,71.32
2022-08-01T08:31:56.974Z,71.33
2022-08-01T08:37:01.462Z,70.56
2022-08-01T08:42:08.900Z,70.83
2022-08-01T08:47:18.997Z,67.06
2022-08-01T08:52:25.127Z,66.91
2022-08-01T08:57:28.763Z,66.03
2022-08-01T09:02:31.775Z,62.73
2022-08-01T09:07:36.022Z,61.74
2022-08-01T09:12:39.070Z,60.20
2022-08-01T09:17:43.399Z,60.27
2022-08-01T09:22:49.230Z,61.13
2022-08-01T09:28:04.891Z,60.55
2022-08-01T09:33:17.957Z,61.32
2022-08-01T09:38:28.087Z,61.14
2022-08-01T09:43:32.966Z,59.82
2022-08-01T09:48:37.887Z,60.15
2022-08-01T09:53:50.945Z,60.37
2022-08-01T09:59:00.968Z,61.46
2022-08-01T10:04:10.985Z,60.71
2022-08-01T10:09:16.489Z,59.36
2022-08-01T10:14:20.823Z,58.11
2022-08-01T10:19:25.793Z,58.03
2022-08-01T10:24:33.850Z,57.55
2022-08-01T10:29:45.858Z,55.36
2022-08-01T10:35:06.816Z,55.55
2022-08-01T10:40:29.968Z,56.05
2022-08-01T10:45:34.353Z,55.27
2022-08-01T10:50:42.875Z,53.45
2022-08-01T10:55:51.104Z,52.80
2022-08-01T11:01:22.707Z,51.73
2022-08-01T11:06:30.620Z,53.56
2022-08-01T11:11:54.883Z,51.54
2022-08-01T11:16:58.226Z,53.72
2022-08-01T11:22:04.749Z,54.16
2022-08-01T11:27:23.642Z,54.87
2022-08-01T11:32:28.571Z,52.60
2022-08-01T11:37:32.252Z,51.17
2022-08-01T11:42:38.404Z,48.33
2022-08-01T11:47:49.941Z,49.97
2022-08-01T11:52:59.415Z,49.42
2022-08-01T11:58:05.386Z,48.83
2022-08-01T12:03:08.977Z,47.31
2022-08-01T12:08:12.260Z,46.67
2022-08-01T12:13:16.447Z,47.39
2022-08-01T12:18:19.780Z,48.28
2022-08-01T12:23:22.871Z,50.31
2022-08-01T12:28:27.131Z,50.13
2022-08-01T12:33:30.840Z,48.80
2022-08-01T12:38:33.992Z,48.78
2022-08-01T12:43:38.099Z,49.17
2022-08-01T12:48:41.205Z,49.34
2022-08-01T12:53:44.123Z,49.05
2022-08-01T12:58:48.216Z,49.78
2022-08-01T13:04:00.021Z,49.96
2022-08-01T13:09:07.905Z,50.08
2022-08-01T13:14:12.146Z,50.13
2022-08-01T13:19:15.645Z,49.91
2022-08-01T13:24:25.823Z,50.67
2022-08-01T13:29:35.109Z,48.30
2022-08-01T13:34:38.269Z,49.57
2022-08-01T13:39:45.330Z,50.45
2022-08-01T13:44:49.533Z,49.63
2022-08-01T13:49:52.569Z,50.85
2022-08-01T13:54:56.730Z,51.28
2022-08-01T14:00:01.650Z,51.77
2022-08-01T14:05:14.820Z,51.79
2022-08-01T14:10:19.884Z,50.96
2022-08-01T14:15:38.265Z,52.05
2022-08-01T14:20:42.363Z,54.12
2022-08-01T14:25:58.209Z,57.42
2022-08-01T14:31:08.861Z,56.80
2022-08-01T14:36:29.309Z,53.49
2022-08-01T14:41:33.722Z,55.21
2022-08-01T14:46:37.934Z,55.94
2022-08-01T14:52:00.268Z,55.91
2022-08-01T14:57:04.049Z,56.52
2022-08-01T15:02:11.491Z,57.11
2022-08-01T15:07:14.918Z,57.88
2022-08-01T15:12:17.787Z,58.74
2022-08-01T15:17:23.727Z,57.08
2022-08-01T15:22:27.650Z,55.56
2022-08-01T15:27:30.794Z,53.53
2022-08-01T15:32:35.207Z,48.69
2022-08-01T15:37:42.648Z,43.72
2022-08-01T15:42:46.807Z,36.83
2022-08-01T15:47:50.935Z,41.54
2022-08-01T15:52:54.222Z,46.71
2022-08-01T15:57:57.244Z,49.17
2022-08-01T16:03:01.314Z,49.45
2022-08-01T16:08:04.674Z,50.52
2022-08-01T16:13:08.101Z,49.10
2022-08-01T16:18:14.459Z,45.06
2022-08-01T16:23:17.344Z,42.69
2022-08-01T16:28:21.434Z,36.38
2022-08-01T16:33:45.221Z,35.59
2022-08-01T16:38:48.446Z,37.72
2022-08-01T16:43:53.269Z,42.21
2022-08-01T16:48:58.780Z,39.32
2022-08-01T16:54:01.915Z,36.97
2022-08-01T16:59:04.723Z,39.82
2022-08-01T17:04:09.010Z,38.43
2022-08-01T17:09:11.800Z,41.17
2022-08-01T17:14:15.654Z,42.68
2022-08-01T17:19:19.827Z,43.40
2022-08-01T17:24:29.711Z,46.95
2022-08-01T17:29:43.275Z,49.37
2022-08-01T17:34:49.980Z,51.00
2022-08-01T17:39:52.775Z,52.23
2022-08-01T17:44:55.646Z,53.31
2022-08-01T17:50:03.855Z,55.16
2022-08-01T17:55:53.274Z,55.63
2022-08-01T18:00:30.552Z,57.23
2022-08-01T18:05:36.844Z,57.23
2022-08-01T18:10:40.264Z,58.10
2022-08-01T18:15:45.144Z,59.16
2022-08-01T18:20:49.264Z,59.81
2022-08-01T18:25:52.041Z,59.68
2022-08-01T18:30:54.960Z,60.43
2022-08-01T18:36:03.678Z,61.25
2022-08-01T18:41:10.148Z,60.69
2022-08-01T18:46:12.995Z,61.70
2022-08-01T18:51:17.199Z,62.36
2022-08-01T18:56:20.693Z,62.67
2022-08-01T19:01:24.455Z,64.01
2022-08-01T19:06:32.339Z,63.56
2022-08-01T19:11:36.318Z,64.49
2022-08-01T19:16:39.308Z,65.34
2022-08-01T19:21:45.002Z,65.22
2022-08-01T19:26:50.759Z,65.99
2022-08-01T19:31:56.085Z,66.67
2022-08-01T19:37:00.429Z,66.73
2022-08-01T19:42:04.134Z,67.63
2022-08-01T19:47:07.313Z,67.71
2022-08-01T19:52:11.907Z,67.91
2022-08-01T19:57:16.876Z,68.99
2022-08-01T20:02:20.754Z,69.80
2022-08-01T20:07:25.071Z,70.81
2022-08-01T20:12:30.272Z,70.18
2022-08-01T20:17:33.806Z,71.52
2022-08-01T20:22:41.456Z,73.64
2022-08-01T20:27:46.428Z,74.78
2022-08-01T20:32:49.536Z,77.07
2022-08-01T20:38:05.464Z,77.01
2022-08-01T20:43:11.697Z,79.28
2022-08-01T20:48:16.485Z,77.72
2022-08-01T20:53:22.125Z,79.50
2022-08-01T20:58:32.478Z,86.57
2022-08-01T21:03:46.518Z,87.75
2022-08-01T21:08:52.349Z,89.39
2022-08-01T21:13:56.292Z,87.94
2022-08-01T21:19:19.147Z,85.52
2022-08-01T21:24:29.892Z,85.75
2022-08-01T21:29:34.571Z,86.61
2022-08-01T21:34:39.214Z,87.81
2022-08-01T21:39:45.017Z,87.89
2022-08-01T21:44:48.462Z,93.18
2022-08-01T21:49:51.271Z,96.56
2022-08-01T21:55:02.554Z,96.79
2022-08-01T22:00:11.866Z,98.96
2022-08-01T22:05:49.956Z,98.75
2022-08-01T22:10:57.865Z,98.16
2022-08-01T22:16:02.074Z,93.75
2022-08-01T22:21:05.203Z,94.08
2022-08-01T22:26:12.008Z,94.45
2022-08-01T22:31:17.306Z,97.07
2022-08-01T22:36:21.049Z,99.06
2022-08-01T22:41:31.183Z,100.00
2022-08-01T22:47:01.306Z,98.83
2022-08-01T22:52:08.778Z,95.86
2022-08-01T22:57:24.603Z,100.00
2022-08-01T23:02:30.058Z,100.00
2022-08-01T23:07:35.248Z,100.00
2022-08-01T23:12:40.634Z,100.00
2022-08-01T23:17:44.275Z,100.00
2022-08-01T23:22:48.845Z,100.00
2022-08-01T23:28:05.566Z,100.00
2022-08-01T23:33:08.866Z,100.00
2022-08-01T23:38:11.691Z,100.00
2022-08-01T23:43:17.490Z,100.00
2022-08-01T23:48:20.911Z,100.00
2022-08-01T23:53:23.645Z,100.00
2022-08-01T23:58:28.658Z,100.00
